sensor_id;sensor_type;location;lat;lon;timestamp;P1;durP1;ratioP1;P2;durP2;ratioP2
7821;SDS011;3956;50.558;9.678;2022-12-07T00:09:09;8.50;;;6.67;;
7821;SDS011;3956;50.558;9.678;2022-12-07T00:11:41;11.17;;;6.90;;
7821;SDS011;3956;50.558;9.678;2022-12-07T00:14:20;10.23;;;6.90;;
7821;SDS011;3956;50.558;9.678;2022-12-07T00:16:59;12.20;;;6.97;;
7821;SDS011;3956;50.558;9.678;2022-12-07T00:19:28;10.37;;;7.17;;
7821;SDS011;3956;50.558;9.678;2022-12-07T00:22:06;11.13;;;6.93;;
7821;SDS011;3956;50.558;9.678;2022-12-07T00:24:35;9.83;;;7.03;;
7821;SDS011;3956;50.558;9.678;2022-12-07T00:27:06;12.63;;;7.70;;
7821;SDS011;3956;50.558;9.678;2022-12-07T00:29:35;11.67;;;6.60;;
7821;SDS011;3956;50.558;9.678;2022-12-07T00:32:03;10.30;;;6.47;;
7821;SDS011;3956;50.558;9.678;2022-12-07T00:34:34;9.40;;;6.87;;
7821;SDS011;3956;50.558;9.678;2022-12-07T00:37:04;9.40;;;7.23;;
7821;SDS011;3956;50.558;9.678;2022-12-07T00:39:35;10.50;;;7.67;;
7821;SDS011;3956;50.558;9.678;2022-12-07T00:42:04;12.60;;;8.20;;
7821;SDS011;3956;50.558;9.678;2022-12-07T00:44:35;13.83;;;8.43;;
7821;SDS011;3956;50.558;9.678;2022-12-07T00:47:05;11.30;;;8.27;;
7821;SDS011;3956;50.558;9.678;2022-12-07T00:49:33;11.40;;;8.20;;
7821;SDS011;3956;50.558;9.678;2022-12-07T00:54:55;12.40;;;8.67;;
7821;SDS011;3956;50.558;9.678;2022-12-07T00:57:27;13.57;;;9.37;;
7821;SDS011;3956;50.558;9.678;2022-12-07T00:59:56;15.60;;;9.43;;
7821;SDS011;3956;50.558;9.678;2022-12-07T01:02:27;14.53;;;8.97;;
7821;SDS011;3956;50.558;9.678;2022-12-07T01:04:55;12.77;;;9.07;;
7821;SDS011;3956;50.558;9.678;2022-12-07T01:07:26;14.17;;;9.73;;
7821;SDS011;3956;50.558;9.678;2022-12-07T01:09:54;15.50;;;9.70;;
7821;SDS011;3956;50.558;9.678;2022-12-07T01:12:23;15.07;;;9.70;;
7821;SDS011;3956;50.558;9.678;2022-12-07T01:14:53;16.83;;;10.73;;
7821;SDS011;3956;50.558;9.678;2022-12-07T01:17:22;16.20;;;10.37;;
7821;SDS011;3956;50.558;9.678;2022-12-07T01:19:50;16.47;;;10.03;;
7821;SDS011;3956;50.558;9.678;2022-12-07T01:22:19;17.37;;;10.77;;
7821;SDS011;3956;50.558;9.678;2022-12-07T01:24:48;17.17;;;11.57;;
7821;SDS011;3956;50.558;9.678;2022-12-07T01:27:18;18.50;;;11.17;;
7821;SDS011;3956;50.558;9.678;2022-12-07T01:29:46;19.83;;;11.93;;
7821;SDS011;3956;50.558;9.678;2022-12-07T01:32:15;19.27;;;11.80;;
7821;SDS011;3956;50.558;9.678;2022-12-07T01:34:44;18.73;;;11.97;;
7821;SDS011;3956;50.558;9.678;2022-12-07T01:37:16;21.60;;;13.40;;
7821;SDS011;3956;50.558;9.678;2022-12-07T01:39:49;22.37;;;12.17;;
7821;SDS011;3956;50.558;9.678;2022-12-07T01:42:19;21.13;;;12.57;;
7821;SDS011;3956;50.558;9.678;2022-12-07T01:47:50;22.00;;;13.27;;
7821;SDS011;3956;50.558;9.678;2022-12-07T01:50:22;21.23;;;12.63;;
7821;SDS011;3956;50.558;9.678;2022-12-07T01:52:54;22.17;;;13.23;;
7821;SDS011;3956;50.558;9.678;2022-12-07T01:55:25;19.77;;;12.57;;
7821;SDS011;3956;50.558;9.678;2022-12-07T01:57:54;22.90;;;13.30;;
7821;SDS011;3956;50.558;9.678;2022-12-07T02:00:24;24.50;;;13.43;;
7821;SDS011;3956;50.558;9.678;2022-12-07T02:02:53;23.13;;;14.07;;
7821;SDS011;3956;50.558;9.678;2022-12-07T02:05:27;22.57;;;14.73;;
7821;SDS011;3956;50.558;9.678;2022-12-07T02:07:56;23.30;;;13.57;;
7821;SDS011;3956;50.558;9.678;2022-12-07T02:10:27;20.17;;;12.73;;
7821;SDS011;3956;50.558;9.678;2022-12-07T02:12:58;23.53;;;13.90;;
7821;SDS011;3956;50.558;9.678;2022-12-07T02:15:32;21.10;;;13.90;;
7821;SDS011;3956;50.558;9.678;2022-12-07T02:18:08;23.63;;;13.43;;
7821;SDS011;3956;50.558;9.678;2022-12-07T02:20:44;22.30;;;13.97;;
7821;SDS011;3956;50.558;9.678;2022-12-07T02:23:32;23.53;;;14.03;;
7821;SDS011;3956;50.558;9.678;2022-12-07T02:29:44;24.20;;;14.87;;
7821;SDS011;3956;50.558;9.678;2022-12-07T02:32:18;28.60;;;14.37;;
7821;SDS011;3956;50.558;9.678;2022-12-07T02:34:52;22.33;;;13.63;;
7821;SDS011;3956;50.558;9.678;2022-12-07T02:37:32;23.73;;;14.57;;
7821;SDS011;3956;50.558;9.678;2022-12-07T02:40:09;23.17;;;14.53;;
7821;SDS011;3956;50.558;9.678;2022-12-07T02:42:42;22.40;;;13.73;;
7821;SDS011;3956;50.558;9.678;2022-12-07T02:45:17;23.50;;;14.97;;
7821;SDS011;3956;50.558;9.678;2022-12-07T02:47:51;23.47;;;14.37;;
7821;SDS011;3956;50.558;9.678;2022-12-07T02:50:26;23.20;;;14.87;;
7821;SDS011;3956;50.558;9.678;2022-12-07T02:52:55;24.27;;;14.67;;
7821;SDS011;3956;50.558;9.678;2022-12-07T02:55:28;23.43;;;14.83;;
7821;SDS011;3956;50.558;9.678;2022-12-07T02:58:06;22.83;;;14.53;;
7821;SDS011;3956;50.558;9.678;2022-12-07T03:00:51;25.60;;;15.27;;
7821;SDS011;3956;50.558;9.678;2022-12-07T03:03:39;26.73;;;15.30;;
7821;SDS011;3956;50.558;9.678;2022-12-07T03:06:15;21.67;;;13.33;;
7821;SDS011;3956;50.558;9.678;2022-12-07T03:08:51;22.90;;;15.03;;
7821;SDS011;3956;50.558;9.678;2022-12-07T03:11:35;21.90;;;14.17;;
7821;SDS011;3956;50.558;9.678;2022-12-07T03:14:13;22.43;;;14.00;;
7821;SDS011;3956;50.558;9.678;2022-12-07T03:16:55;22.80;;;14.23;;
7821;SDS011;3956;50.558;9.678;2022-12-07T03:19:31;22.63;;;13.97;;
7821;SDS011;3956;50.558;9.678;2022-12-07T03:22:02;25.20;;;14.70;;
7821;SDS011;3956;50.558;9.678;2022-12-07T03:24:36;25.67;;;14.33;;
7821;SDS011;3956;50.558;9.678;2022-12-07T03:27:11;25.03;;;14.53;;
7821;SDS011;3956;50.558;9.678;2022-12-07T03:29:46;25.13;;;15.47;;
7821;SDS011;3956;50.558;9.678;2022-12-07T03:32:21;21.90;;;13.97;;
7821;SDS011;3956;50.558;9.678;2022-12-07T03:34:55;24.23;;;14.80;;
7821;SDS011;3956;50.558;9.678;2022-12-07T03:37:30;23.97;;;14.33;;
7821;SDS011;3956;50.558;9.678;2022-12-07T03:40:18;21.53;;;13.77;;
7821;SDS011;3956;50.558;9.678;2022-12-07T03:42:52;21.10;;;12.97;;
7821;SDS011;3956;50.558;9.678;2022-12-07T03:45:23;19.17;;;12.80;;
7821;SDS011;3956;50.558;9.678;2022-12-07T03:48:07;20.40;;;13.33;;
7821;SDS011;3956;50.558;9.678;2022-12-07T03:50:40;22.33;;;13.67;;
7821;SDS011;3956;50.558;9.678;2022-12-07T03:53:15;22.23;;;14.20;;
7821;SDS011;3956;50.558;9.678;2022-12-07T03:55:49;20.70;;;13.23;;
7821;SDS011;3956;50.558;9.678;2022-12-07T03:58:19;20.63;;;14.10;;
7821;SDS011;3956;50.558;9.678;2022-12-07T04:00:50;22.07;;;14.20;;
7821;SDS011;3956;50.558;9.678;2022-12-07T04:03:22;25.03;;;15.13;;
7821;SDS011;3956;50.558;9.678;2022-12-07T04:05:50;20.23;;;13.00;;
7821;SDS011;3956;50.558;9.678;2022-12-07T04:08:19;21.23;;;13.60;;
7821;SDS011;3956;50.558;9.678;2022-12-07T04:10:49;23.67;;;13.57;;
7821;SDS011;3956;50.558;9.678;2022-12-07T04:13:19;19.23;;;13.63;;
7821;SDS011;3956;50.558;9.678;2022-12-07T04:15:49;19.23;;;13.13;;
7821;SDS011;3956;50.558;9.678;2022-12-07T04:18:28;25.20;;;13.77;;
7821;SDS011;3956;50.558;9.678;2022-12-07T04:21:16;22.67;;;13.90;;
7821;SDS011;3956;50.558;9.678;2022-12-07T04:23:45;22.00;;;14.27;;
7821;SDS011;3956;50.558;9.678;2022-12-07T04:26:15;22.23;;;14.87;;
7821;SDS011;3956;50.558;9.678;2022-12-07T04:28:50;23.97;;;14.43;;
7821;SDS011;3956;50.558;9.678;2022-12-07T04:31:19;21.17;;;13.67;;
7821;SDS011;3956;50.558;9.678;2022-12-07T04:33:48;22.70;;;14.17;;
7821;SDS011;3956;50.558;9.678;2022-12-07T04:36:17;22.13;;;13.53;;
7821;SDS011;3956;50.558;9.678;2022-12-07T04:38:50;22.33;;;14.50;;
7821;SDS011;3956;50.558;9.678;2022-12-07T04:41:29;19.43;;;13.07;;
7821;SDS011;3956;50.558;9.678;2022-12-07T04:44:30;21.93;;;14.00;;
7821;SDS011;3956;50.558;9.678;2022-12-07T04:47:48;21.70;;;14.70;;
7821;SDS011;3956;50.558;9.678;2022-12-07T04:50:21;17.87;;;12.77;;
7821;SDS011;3956;50.558;9.678;2022-12-07T04:52:54;20.97;;;13.30;;
7821;SDS011;3956;50.558;9.678;2022-12-07T04:55:24;20.70;;;13.67;;
7821;SDS011;3956;50.558;9.678;2022-12-07T04:57:57;17.63;;;12.33;;
7821;SDS011;3956;50.558;9.678;2022-12-07T05:00:27;18.53;;;11.87;;
7821;SDS011;3956;50.558;9.678;2022-12-07T05:02:55;19.13;;;13.00;;
7821;SDS011;3956;50.558;9.678;2022-12-07T05:05:26;18.50;;;12.40;;
7821;SDS011;3956;50.558;9.678;2022-12-07T05:07:56;19.53;;;12.57;;
7821;SDS011;3956;50.558;9.678;2022-12-07T05:10:26;18.50;;;13.00;;
7821;SDS011;3956;50.558;9.678;2022-12-07T05:12:54;18.83;;;13.10;;
7821;SDS011;3956;50.558;9.678;2022-12-07T05:15:24;20.20;;;14.13;;
7821;SDS011;3956;50.558;9.678;2022-12-07T05:17:54;21.57;;;12.90;;
7821;SDS011;3956;50.558;9.678;2022-12-07T05:20:25;19.30;;;13.43;;
7821;SDS011;3956;50.558;9.678;2022-12-07T05:23:29;19.17;;;12.70;;
7821;SDS011;3956;50.558;9.678;2022-12-07T05:27:16;21.40;;;13.33;;
7821;SDS011;3956;50.558;9.678;2022-12-07T05:29:44;20.20;;;12.73;;
7821;SDS011;3956;50.558;9.678;2022-12-07T05:32:13;22.00;;;13.87;;
7821;SDS011;3956;50.558;9.678;2022-12-07T05:34:42;20.90;;;13.27;;
7821;SDS011;3956;50.558;9.678;2022-12-07T05:37:11;20.83;;;13.33;;
7821;SDS011;3956;50.558;9.678;2022-12-07T05:39:41;23.73;;;13.57;;
7821;SDS011;3956;50.558;9.678;2022-12-07T05:42:11;22.10;;;13.57;;
7821;SDS011;3956;50.558;9.678;2022-12-07T05:44:46;20.70;;;13.47;;
7821;SDS011;3956;50.558;9.678;2022-12-07T05:47:19;19.20;;;12.47;;
7821;SDS011;3956;50.558;9.678;2022-12-07T05:49:48;20.30;;;12.80;;
7821;SDS011;3956;50.558;9.678;2022-12-07T05:52:18;18.90;;;12.93;;
7821;SDS011;3956;50.558;9.678;2022-12-07T05:54:46;18.23;;;12.50;;
7821;SDS011;3956;50.558;9.678;2022-12-07T05:57:17;19.13;;;13.20;;
7821;SDS011;3956;50.558;9.678;2022-12-07T05:59:58;20.07;;;13.00;;
7821;SDS011;3956;50.558;9.678;2022-12-07T06:03:06;18.93;;;12.00;;
7821;SDS011;3956;50.558;9.678;2022-12-07T06:06:15;15.60;;;10.77;;
7821;SDS011;3956;50.558;9.678;2022-12-07T06:19:26;16.23;;;11.27;;
7821;SDS011;3956;50.558;9.678;2022-12-07T06:22:05;14.40;;;10.93;;
7821;SDS011;3956;50.558;9.678;2022-12-07T06:25:01;13.87;;;10.27;;
7821;SDS011;3956;50.558;9.678;2022-12-07T06:27:44;14.33;;;10.20;;
7821;SDS011;3956;50.558;9.678;2022-12-07T06:30:18;16.73;;;10.93;;
7821;SDS011;3956;50.558;9.678;2022-12-07T06:32:55;13.77;;;9.60;;
7821;SDS011;3956;50.558;9.678;2022-12-07T06:35:34;15.87;;;11.23;;
7821;SDS011;3956;50.558;9.678;2022-12-07T06:38:22;14.03;;;10.17;;
7821;SDS011;3956;50.558;9.678;2022-12-07T06:41:45;14.67;;;9.97;;
7821;SDS011;3956;50.558;9.678;2022-12-07T06:45:31;15.23;;;9.63;;
7821;SDS011;3956;50.558;9.678;2022-12-07T06:51:54;16.83;;;10.93;;
7821;SDS011;3956;50.558;9.678;2022-12-07T06:55:18;21.33;;;13.37;;
7821;SDS011;3956;50.558;9.678;2022-12-07T06:57:47;16.77;;;10.60;;
7821;SDS011;3956;50.558;9.678;2022-12-07T07:00:17;17.43;;;11.73;;
7821;SDS011;3956;50.558;9.678;2022-12-07T07:02:57;14.90;;;10.63;;
7821;SDS011;3956;50.558;9.678;2022-12-07T07:05:35;14.77;;;10.13;;
7821;SDS011;3956;50.558;9.678;2022-12-07T07:08:11;15.60;;;10.83;;
7821;SDS011;3956;50.558;9.678;2022-12-07T07:10:51;17.57;;;11.40;;
7821;SDS011;3956;50.558;9.678;2022-12-07T07:13:21;17.13;;;10.50;;
7821;SDS011;3956;50.558;9.678;2022-12-07T07:15:50;13.53;;;9.13;;
7821;SDS011;3956;50.558;9.678;2022-12-07T07:18:24;16.40;;;9.80;;
7821;SDS011;3956;50.558;9.678;2022-12-07T07:21:08;17.87;;;9.90;;
7821;SDS011;3956;50.558;9.678;2022-12-07T07:23:39;15.80;;;10.90;;
7821;SDS011;3956;50.558;9.678;2022-12-07T07:26:18;13.77;;;10.07;;
7821;SDS011;3956;50.558;9.678;2022-12-07T07:29:38;14.27;;;9.63;;
7821;SDS011;3956;50.558;9.678;2022-12-07T07:32:27;12.80;;;8.90;;
7821;SDS011;3956;50.558;9.678;2022-12-07T07:35:48;14.07;;;9.93;;
7821;SDS011;3956;50.558;9.678;2022-12-07T07:42:15;12.67;;;8.83;;
7821;SDS011;3956;50.558;9.678;2022-12-07T07:45:05;12.13;;;8.90;;
7821;SDS011;3956;50.558;9.678;2022-12-07T07:48:01;19.10;;;12.50;;
7821;SDS011;3956;50.558;9.678;2022-12-07T07:50:49;12.67;;;8.70;;
7821;SDS011;3956;50.558;9.678;2022-12-07T07:54:13;12.73;;;7.90;;
7821;SDS011;3956;50.558;9.678;2022-12-07T07:56:57;11.93;;;9.07;;
7821;SDS011;3956;50.558;9.678;2022-12-07T07:59:28;12.13;;;7.93;;
7821;SDS011;3956;50.558;9.678;2022-12-07T08:01:56;11.57;;;7.90;;
7821;SDS011;3956;50.558;9.678;2022-12-07T08:04:25;11.83;;;8.10;;
7821;SDS011;3956;50.558;9.678;2022-12-07T08:06:53;14.00;;;8.03;;
7821;SDS011;3956;50.558;9.678;2022-12-07T08:09:24;11.13;;;7.27;;
7821;SDS011;3956;50.558;9.678;2022-12-07T08:11:55;11.23;;;7.60;;
7821;SDS011;3956;50.558;9.678;2022-12-07T08:14:24;9.07;;;6.80;;
7821;SDS011;3956;50.558;9.678;2022-12-07T08:17:07;8.27;;;6.67;;
7821;SDS011;3956;50.558;9.678;2022-12-07T08:19:43;9.93;;;7.33;;
7821;SDS011;3956;50.558;9.678;2022-12-07T08:22:12;10.70;;;7.50;;
7821;SDS011;3956;50.558;9.678;2022-12-07T08:24:41;11.80;;;7.60;;
7821;SDS011;3956;50.558;9.678;2022-12-07T08:27:14;9.73;;;6.73;;
7821;SDS011;3956;50.558;9.678;2022-12-07T08:29:46;10.00;;;7.30;;
7821;SDS011;3956;50.558;9.678;2022-12-07T08:32:20;10.87;;;7.77;;
7821;SDS011;3956;50.558;9.678;2022-12-07T08:34:57;8.90;;;6.63;;
7821;SDS011;3956;50.558;9.678;2022-12-07T08:37:34;10.33;;;6.67;;
7821;SDS011;3956;50.558;9.678;2022-12-07T08:40:16;10.00;;;7.00;;
7821;SDS011;3956;50.558;9.678;2022-12-07T08:42:48;10.03;;;6.97;;
7821;SDS011;3956;50.558;9.678;2022-12-07T08:45:19;8.30;;;6.23;;
7821;SDS011;3956;50.558;9.678;2022-12-07T08:47:59;10.03;;;6.40;;
7821;SDS011;3956;50.558;9.678;2022-12-07T08:50:37;9.67;;;6.03;;
7821;SDS011;3956;50.558;9.678;2022-12-07T08:53:16;8.83;;;6.53;;
7821;SDS011;3956;50.558;9.678;2022-12-07T08:56:29;12.20;;;7.40;;
7821;SDS011;3956;50.558;9.678;2022-12-07T09:00:05;11.33;;;7.60;;
7821;SDS011;3956;50.558;9.678;2022-12-07T09:02:48;9.23;;;6.70;;
7821;SDS011;3956;50.558;9.678;2022-12-07T09:05:24;9.23;;;6.27;;
7821;SDS011;3956;50.558;9.678;2022-12-07T09:07:55;11.00;;;7.00;;
7821;SDS011;3956;50.558;9.678;2022-12-07T09:10:28;12.40;;;7.60;;
7821;SDS011;3956;50.558;9.678;2022-12-07T09:13:07;14.13;;;7.50;;
7821;SDS011;3956;50.558;9.678;2022-12-07T09:15:45;9.93;;;7.60;;
7821;SDS011;3956;50.558;9.678;2022-12-07T09:18:21;10.27;;;7.40;;
7821;SDS011;3956;50.558;9.678;2022-12-07T09:21:01;11.23;;;8.17;;
7821;SDS011;3956;50.558;9.678;2022-12-07T09:23:30;10.87;;;7.63;;
7821;SDS011;3956;50.558;9.678;2022-12-07T09:26:13;12.13;;;7.70;;
7821;SDS011;3956;50.558;9.678;2022-12-07T09:31:44;10.00;;;6.70;;
7821;SDS011;3956;50.558;9.678;2022-12-07T09:34:13;12.77;;;7.77;;
7821;SDS011;3956;50.558;9.678;2022-12-07T09:36:47;9.47;;;7.00;;
7821;SDS011;3956;50.558;9.678;2022-12-07T09:39:17;9.07;;;7.30;;
7821;SDS011;3956;50.558;9.678;2022-12-07T09:41:47;9.90;;;6.67;;
7821;SDS011;3956;50.558;9.678;2022-12-07T09:44:40;10.90;;;7.33;;
7821;SDS011;3956;50.558;9.678;2022-12-07T09:47:08;10.97;;;6.37;;
7821;SDS011;3956;50.558;9.678;2022-12-07T09:49:38;7.83;;;5.93;;
7821;SDS011;3956;50.558;9.678;2022-12-07T09:55:46;8.03;;;5.83;;
7821;SDS011;3956;50.558;9.678;2022-12-07T09:59:00;8.83;;;5.27;;
7821;SDS011;3956;50.558;9.678;2022-12-07T10:02:19;7.97;;;4.10;;
7821;SDS011;3956;50.558;9.678;2022-12-07T10:04:53;7.77;;;4.63;;
7821;SDS011;3956;50.558;9.678;2022-12-07T10:07:34;7.17;;;5.10;;
7821;SDS011;3956;50.558;9.678;2022-12-07T10:10:05;6.93;;;4.50;;
7821;SDS011;3956;50.558;9.678;2022-12-07T10:12:52;6.60;;;4.27;;
7821;SDS011;3956;50.558;9.678;2022-12-07T10:15:45;7.40;;;4.27;;
7821;SDS011;3956;50.558;9.678;2022-12-07T10:18:20;6.23;;;3.63;;
7821;SDS011;3956;50.558;9.678;2022-12-07T10:21:17;8.40;;;4.40;;
7821;SDS011;3956;50.558;9.678;2022-12-07T10:24:00;6.43;;;4.03;;
7821;SDS011;3956;50.558;9.678;2022-12-07T10:26:35;9.80;;;4.37;;
7821;SDS011;3956;50.558;9.678;2022-12-07T10:29:14;7.30;;;4.20;;
7821;SDS011;3956;50.558;9.678;2022-12-07T10:31:49;5.53;;;4.00;;
7821;SDS011;3956;50.558;9.678;2022-12-07T10:34:27;6.57;;;4.57;;
7821;SDS011;3956;50.558;9.678;2022-12-07T10:37:13;5.80;;;3.47;;
7821;SDS011;3956;50.558;9.678;2022-12-07T10:39:53;4.63;;;3.07;;
7821;SDS011;3956;50.558;9.678;2022-12-07T10:42:30;8.00;;;3.70;;
7821;SDS011;3956;50.558;9.678;2022-12-07T10:45:41;5.13;;;3.27;;
7821;SDS011;3956;50.558;9.678;2022-12-07T10:49:00;8.03;;;3.70;;
7821;SDS011;3956;50.558;9.678;2022-12-07T10:52:08;5.00;;;3.20;;
7821;SDS011;3956;50.558;9.678;2022-12-07T10:54:51;8.13;;;3.93;;
7821;SDS011;3956;50.558;9.678;2022-12-07T10:57:36;4.23;;;3.13;;
7821;SDS011;3956;50.558;9.678;2022-12-07T11:00:20;11.07;;;3.80;;
7821;SDS011;3956;50.558;9.678;2022-12-07T11:03:21;5.13;;;3.40;;
7821;SDS011;3956;50.558;9.678;2022-12-07T11:06:06;5.53;;;3.20;;
7821;SDS011;3956;50.558;9.678;2022-12-07T11:12:34;9.00;;;3.53;;
7821;SDS011;3956;50.558;9.678;2022-12-07T11:19:00;7.20;;;4.80;;
7821;SDS011;3956;50.558;9.678;2022-12-07T11:22:24;5.50;;;3.40;;
7821;SDS011;3956;50.558;9.678;2022-12-07T11:25:16;4.80;;;2.90;;
7821;SDS011;3956;50.558;9.678;2022-12-07T11:28:08;9.27;;;3.43;;
7821;SDS011;3956;50.558;9.678;2022-12-07T11:31:16;5.17;;;3.53;;
7821;SDS011;3956;50.558;9.678;2022-12-07T11:33:57;6.17;;;3.70;;
7821;SDS011;3956;50.558;9.678;2022-12-07T11:37:16;11.27;;;4.03;;
7821;SDS011;3956;50.558;9.678;2022-12-07T11:40:26;7.40;;;3.93;;
7821;SDS011;3956;50.558;9.678;2022-12-07T11:43:02;9.13;;;4.20;;
7821;SDS011;3956;50.558;9.678;2022-12-07T11:45:43;8.07;;;3.40;;
7821;SDS011;3956;50.558;9.678;2022-12-07T11:48:16;8.30;;;4.40;;
7821;SDS011;3956;50.558;9.678;2022-12-07T11:50:56;9.47;;;3.77;;
7821;SDS011;3956;50.558;9.678;2022-12-07T11:53:31;8.43;;;4.03;;
7821;SDS011;3956;50.558;9.678;2022-12-07T11:56:10;6.27;;;3.60;;
7821;SDS011;3956;50.558;9.678;2022-12-07T11:59:03;5.20;;;3.40;;
7821;SDS011;3956;50.558;9.678;2022-12-07T12:01:52;7.77;;;3.83;;
7821;SDS011;3956;50.558;9.678;2022-12-07T12:04:39;6.23;;;3.83;;
7821;SDS011;3956;50.558;9.678;2022-12-07T12:07:30;7.17;;;3.63;;
7821;SDS011;3956;50.558;9.678;2022-12-07T12:10:45;7.77;;;3.97;;
7821;SDS011;3956;50.558;9.678;2022-12-07T12:13:47;6.27;;;3.30;;
7821;SDS011;3956;50.558;9.678;2022-12-07T12:20:57;7.00;;;3.13;;
7821;SDS011;3956;50.558;9.678;2022-12-07T12:23:36;6.80;;;2.90;;
7821;SDS011;3956;50.558;9.678;2022-12-07T12:26:40;6.97;;;3.00;;
7821;SDS011;3956;50.558;9.678;2022-12-07T12:29:36;7.20;;;3.27;;
7821;SDS011;3956;50.558;9.678;2022-12-07T12:32:17;6.03;;;2.93;;
7821;SDS011;3956;50.558;9.678;2022-12-07T12:34:59;5.40;;;3.07;;
7821;SDS011;3956;50.558;9.678;2022-12-07T12:37:49;5.97;;;3.03;;
7821;SDS011;3956;50.558;9.678;2022-12-07T12:43:47;5.93;;;3.10;;
7821;SDS011;3956;50.558;9.678;2022-12-07T12:46:38;6.17;;;2.93;;
7821;SDS011;3956;50.558;9.678;2022-12-07T12:49:33;6.33;;;3.00;;
7821;SDS011;3956;50.558;9.678;2022-12-07T12:55:24;5.13;;;3.30;;
7821;SDS011;3956;50.558;9.678;2022-12-07T12:58:36;8.33;;;3.03;;
7821;SDS011;3956;50.558;9.678;2022-12-07T13:04:50;6.73;;;3.30;;
7821;SDS011;3956;50.558;9.678;2022-12-07T13:07:56;5.30;;;3.30;;
7821;SDS011;3956;50.558;9.678;2022-12-07T13:11:16;6.60;;;2.97;;
7821;SDS011;3956;50.558;9.678;2022-12-07T13:13:49;5.00;;;2.73;;
7821;SDS011;3956;50.558;9.678;2022-12-07T13:16:37;4.77;;;2.47;;
7821;SDS011;3956;50.558;9.678;2022-12-07T13:22:44;6.67;;;3.20;;
7821;SDS011;3956;50.558;9.678;2022-12-07T13:25:27;5.63;;;3.23;;
7821;SDS011;3956;50.558;9.678;2022-12-07T13:28:07;4.33;;;2.73;;
7821;SDS011;3956;50.558;9.678;2022-12-07T13:31:11;6.63;;;3.67;;
7821;SDS011;3956;50.558;9.678;2022-12-07T13:34:30;4.43;;;2.53;;
7821;SDS011;3956;50.558;9.678;2022-12-07T13:37:33;5.53;;;2.47;;
7821;SDS011;3956;50.558;9.678;2022-12-07T13:40:12;10.27;;;2.80;;
7821;SDS011;3956;50.558;9.678;2022-12-07T13:43:12;6.30;;;2.50;;
7821;SDS011;3956;50.558;9.678;2022-12-07T13:45:56;8.80;;;2.93;;
7821;SDS011;3956;50.558;9.678;2022-12-07T13:48:30;8.00;;;2.63;;
7821;SDS011;3956;50.558;9.678;2022-12-07T13:51:16;5.40;;;2.40;;
7821;SDS011;3956;50.558;9.678;2022-12-07T13:54:13;13.87;;;4.47;;
7821;SDS011;3956;50.558;9.678;2022-12-07T13:56:53;10.50;;;4.40;;
7821;SDS011;3956;50.558;9.678;2022-12-07T13:59:30;18.27;;;9.23;;
7821;SDS011;3956;50.558;9.678;2022-12-07T14:02:00;9.40;;;5.10;;
7821;SDS011;3956;50.558;9.678;2022-12-07T14:04:31;6.60;;;3.93;;
7821;SDS011;3956;50.558;9.678;2022-12-07T14:10:26;3.73;;;2.67;;
7821;SDS011;3956;50.558;9.678;2022-12-07T14:13:30;4.97;;;2.57;;
7821;SDS011;3956;50.558;9.678;2022-12-07T14:16:04;5.03;;;2.27;;
7821;SDS011;3956;50.558;9.678;2022-12-07T14:18:48;3.97;;;2.10;;
7821;SDS011;3956;50.558;9.678;2022-12-07T14:21:22;3.37;;;2.27;;
7821;SDS011;3956;50.558;9.678;2022-12-07T14:24:42;4.90;;;2.40;;
7821;SDS011;3956;50.558;9.678;2022-12-07T14:27:52;4.70;;;2.60;;
7821;SDS011;3956;50.558;9.678;2022-12-07T14:30:57;4.37;;;2.43;;
7821;SDS011;3956;50.558;9.678;2022-12-07T14:36:25;4.23;;;2.70;;
7821;SDS011;3956;50.558;9.678;2022-12-07T14:38:58;5.10;;;2.67;;
7821;SDS011;3956;50.558;9.678;2022-12-07T14:41:28;4.30;;;2.60;;
7821;SDS011;3956;50.558;9.678;2022-12-07T14:44:52;3.70;;;2.77;;
7821;SDS011;3956;50.558;9.678;2022-12-07T14:48:13;6.17;;;3.30;;
7821;SDS011;3956;50.558;9.678;2022-12-07T14:51:07;7.33;;;3.00;;
7821;SDS011;3956;50.558;9.678;2022-12-07T14:54:02;5.87;;;3.00;;
7821;SDS011;3956;50.558;9.678;2022-12-07T14:56:35;5.20;;;3.03;;
7821;SDS011;3956;50.558;9.678;2022-12-07T14:59:04;9.40;;;3.03;;
7821;SDS011;3956;50.558;9.678;2022-12-07T15:01:34;9.80;;;3.47;;
7821;SDS011;3956;50.558;9.678;2022-12-07T15:04:03;6.23;;;2.80;;
7821;SDS011;3956;50.558;9.678;2022-12-07T15:06:34;9.20;;;3.37;;
7821;SDS011;3956;50.558;9.678;2022-12-07T15:09:05;6.60;;;3.30;;
7821;SDS011;3956;50.558;9.678;2022-12-07T15:11:43;8.10;;;3.03;;
7821;SDS011;3956;50.558;9.678;2022-12-07T15:14:35;7.77;;;3.80;;
7821;SDS011;3956;50.558;9.678;2022-12-07T15:17:36;9.20;;;3.60;;
7821;SDS011;3956;50.558;9.678;2022-12-07T15:20:33;9.00;;;3.80;;
7821;SDS011;3956;50.558;9.678;2022-12-07T15:23:04;5.33;;;3.37;;
7821;SDS011;3956;50.558;9.678;2022-12-07T15:25:34;5.93;;;3.40;;
7821;SDS011;3956;50.558;9.678;2022-12-07T15:28:14;12.97;;;6.20;;
7821;SDS011;3956;50.558;9.678;2022-12-07T15:31:14;13.30;;;5.60;;
7821;SDS011;3956;50.558;9.678;2022-12-07T15:34:09;7.67;;;4.07;;
7821;SDS011;3956;50.558;9.678;2022-12-07T15:36:40;11.93;;;6.70;;
7821;SDS011;3956;50.558;9.678;2022-12-07T15:39:42;12.67;;;7.57;;
7821;SDS011;3956;50.558;9.678;2022-12-07T15:42:34;8.57;;;5.17;;
7821;SDS011;3956;50.558;9.678;2022-12-07T15:45:25;22.27;;;10.33;;
7821;SDS011;3956;50.558;9.678;2022-12-07T15:48:17;11.27;;;6.93;;
7821;SDS011;3956;50.558;9.678;2022-12-07T15:51:27;10.13;;;4.17;;
7821;SDS011;3956;50.558;9.678;2022-12-07T15:54:28;9.57;;;3.87;;
7821;SDS011;3956;50.558;9.678;2022-12-07T15:57:18;6.77;;;4.47;;
7821;SDS011;3956;50.558;9.678;2022-12-07T16:00:20;8.00;;;4.23;;
7821;SDS011;3956;50.558;9.678;2022-12-07T16:03:09;6.40;;;3.37;;
7821;SDS011;3956;50.558;9.678;2022-12-07T16:06:09;7.53;;;3.60;;
7821;SDS011;3956;50.558;9.678;2022-12-07T16:09:10;5.60;;;3.73;;
7821;SDS011;3956;50.558;9.678;2022-12-07T16:12:14;4.40;;;3.20;;
7821;SDS011;3956;50.558;9.678;2022-12-07T16:14:54;6.73;;;3.73;;
7821;SDS011;3956;50.558;9.678;2022-12-07T16:17:53;7.73;;;3.47;;
7821;SDS011;3956;50.558;9.678;2022-12-07T16:21:13;8.60;;;3.77;;
7821;SDS011;3956;50.558;9.678;2022-12-07T16:24:04;8.37;;;4.30;;
7821;SDS011;3956;50.558;9.678;2022-12-07T16:26:58;5.57;;;3.70;;
7821;SDS011;3956;50.558;9.678;2022-12-07T16:32:31;9.23;;;4.47;;
7821;SDS011;3956;50.558;9.678;2022-12-07T16:35:06;13.83;;;4.20;;
7821;SDS011;3956;50.558;9.678;2022-12-07T16:38:39;8.20;;;4.23;;
7821;SDS011;3956;50.558;9.678;2022-12-07T16:41:17;7.77;;;3.70;;
7821;SDS011;3956;50.558;9.678;2022-12-07T16:44:18;7.97;;;3.47;;
7821;SDS011;3956;50.558;9.678;2022-12-07T16:47:04;11.80;;;4.33;;
7821;SDS011;3956;50.558;9.678;2022-12-07T16:49:34;7.20;;;3.63;;
7821;SDS011;3956;50.558;9.678;2022-12-07T16:52:03;7.53;;;3.70;;
7821;SDS011;3956;50.558;9.678;2022-12-07T16:55:01;6.73;;;3.83;;
7821;SDS011;3956;50.558;9.678;2022-12-07T16:57:32;7.70;;;4.13;;
7821;SDS011;3956;50.558;9.678;2022-12-07T17:00:05;5.60;;;3.07;;
7821;SDS011;3956;50.558;9.678;2022-12-07T17:03:13;9.13;;;4.00;;
7821;SDS011;3956;50.558;9.678;2022-12-07T17:05:47;9.03;;;4.43;;
7821;SDS011;3956;50.558;9.678;2022-12-07T17:08:17;22.47;;;9.07;;
7821;SDS011;3956;50.558;9.678;2022-12-07T17:17:41;14.10;;;4.50;;
7821;SDS011;3956;50.558;9.678;2022-12-07T17:20:59;10.30;;;5.00;;
7821;SDS011;3956;50.558;9.678;2022-12-07T17:24:40;11.57;;;6.47;;
7821;SDS011;3956;50.558;9.678;2022-12-07T17:27:46;11.77;;;4.70;;
7821;SDS011;3956;50.558;9.678;2022-12-07T17:30:18;12.57;;;6.03;;
7821;SDS011;3956;50.558;9.678;2022-12-07T17:32:51;6.00;;;4.17;;
7821;SDS011;3956;50.558;9.678;2022-12-07T17:35:28;8.33;;;5.30;;
7821;SDS011;3956;50.558;9.678;2022-12-07T17:41:19;7.13;;;4.70;;
7821;SDS011;3956;50.558;9.678;2022-12-07T17:44:07;9.67;;;5.20;;
7821;SDS011;3956;50.558;9.678;2022-12-07T17:46:52;14.93;;;7.23;;
7821;SDS011;3956;50.558;9.678;2022-12-07T17:49:25;11.17;;;5.57;;
7821;SDS011;3956;50.558;9.678;2022-12-07T17:51:57;8.90;;;4.93;;
7821;SDS011;3956;50.558;9.678;2022-12-07T17:55:03;11.37;;;4.73;;
7821;SDS011;3956;50.558;9.678;2022-12-07T17:58:05;7.43;;;5.00;;
7821;SDS011;3956;50.558;9.678;2022-12-07T18:01:01;10.30;;;5.67;;